createdAt,value
2022-09-14T00:00:04.096Z,13.7
2022-09-14T00:01:24.260Z,13.6
2022-09-14T00:02:04.125Z,13.6
2022-09-14T00:03:04.132Z,13.6
2022-09-14T00:04:04.043Z,13.6
2022-09-14T00:05:04.090Z,13.6
2022-09-14T00:06:04.034Z,13.6
2022-09-14T00:07:04.025Z,13.6
2022-09-14T00:08:04.076Z,13.6
2022-09-14T00:09:04.030Z,13.6
2022-09-14T00:10:04.031Z,13.6
2022-09-14T00:11:04.040Z,13.6
2022-09-14T00:12:04.058Z,13.6
2022-09-14T00:13:04.047Z,13.6
2022-09-14T00:14:04.051Z,13.6
2022-09-14T00:15:04.036Z,13.7
2022-09-14T00:16:04.042Z,13.7
2022-09-14T00:17:04.105Z,13.6
2022-09-14T00:18:04.043Z,13.7
2022-09-14T00:19:04.024Z,13.7
2022-09-14T00:20:04.091Z,13.6
2022-09-14T00:21:04.073Z,13.6
2022-09-14T00:22:04.035Z,13.7
2022-09-14T00:23:04.018Z,13.6
2022-09-14T00:24:04.045Z,13.7
2022-09-14T00:25:04.150Z,13.7
2022-09-14T00:26:04.038Z,13.7
2022-09-14T00:27:04.036Z,13.6
2022-09-14T00:28:04.120Z,13.6
2022-09-14T00:29:04.028Z,13.7
2022-09-14T00:30:04.045Z,13.6
2022-09-14T00:31:04.053Z,13.6
2022-09-14T00:32:04.122Z,13.5
2022-09-14T00:33:04.044Z,13.5
2022-09-14T00:34:04.045Z,13.5
2022-09-14T00:35:04.041Z,13.6
2022-09-14T00:36:04.041Z,13.6
2022-09-14T00:37:04.038Z,13.6
2022-09-14T00:38:04.060Z,13.6
2022-09-14T00:39:04.037Z,13.6
2022-09-14T00:40:04.090Z,13.5
2022-09-14T00:41:04.054Z,13.6
2022-09-14T00:42:04.098Z,13.6
2022-09-14T00:43:04.047Z,13.6
2022-09-14T00:44:04.056Z,13.6
2022-09-14T00:45:04.042Z,13.5
2022-09-14T00:46:04.088Z,13.6
2022-09-14T00:47:04.063Z,13.5
2022-09-14T00:48:04.045Z,13.5
2022-09-14T00:49:04.060Z,13.6
2022-09-14T00:50:04.053Z,13.6
2022-09-14T00:51:04.055Z,13.6
2022-09-14T00:52:04.141Z,13.5
2022-09-14T00:53:04.041Z,13.6
2022-09-14T00:54:04.041Z,13.6
2022-09-14T00:55:04.049Z,13.6
2022-09-14T00:56:04.038Z,13.6
2022-09-14T00:57:04.057Z,13.6
2022-09-14T00:58:04.051Z,13.5
2022-09-14T00:59:04.111Z,13.6
2022-09-14T01:00:04.045Z,13.6
2022-09-14T01:01:04.085Z,13.6
2022-09-14T01:02:04.092Z,13.6
2022-09-14T01:03:04.049Z,13.6
2022-09-14T01:04:04.124Z,13.6
2022-09-14T01:05:04.045Z,13.6
2022-09-14T01:06:04.067Z,13.6
2022-09-14T01:07:04.063Z,13.6
2022-09-14T01:08:04.056Z,13.6
2022-09-14T01:09:04.049Z,13.6
2022-09-14T01:10:04.085Z,13.5
2022-09-14T01:11:04.058Z,13.6
2022-09-14T01:12:04.046Z,13.6
2022-09-14T01:13:04.046Z,13.6
2022-09-14T01:14:04.070Z,13.6
2022-09-14T01:15:04.067Z,13.6
2022-09-14T01:16:04.093Z,13.6
2022-09-14T01:17:04.050Z,13.5
2022-09-14T01:18:04.059Z,13.6
2022-09-14T01:19:04.062Z,13.5
2022-09-14T01:20:04.046Z,13.6
2022-09-14T01:21:04.063Z,13.6
2022-09-14T01:22:04.053Z,13.7
2022-09-14T01:23:04.063Z,13.6
2022-09-14T01:24:04.054Z,13.7
2022-09-14T01:25:04.054Z,13.6
2022-09-14T01:26:04.052Z,13.6
2022-09-14T01:27:04.071Z,13.7
2022-09-14T01:28:04.062Z,13.6
2022-09-14T01:29:04.050Z,13.7
2022-09-14T01:30:04.055Z,13.7
2022-09-14T01:31:04.070Z,13.6
2022-09-14T01:32:04.108Z,13.6
2022-09-14T01:33:04.059Z,13.6
2022-09-14T01:34:04.064Z,13.7
2022-09-14T01:35:04.071Z,13.7
2022-09-14T01:36:04.065Z,13.7
2022-09-14T01:37:04.067Z,13.7
2022-09-14T01:38:04.059Z,13.7
2022-09-14T01:39:04.066Z,13.6
2022-09-14T01:40:04.093Z,13.7
2022-09-14T01:41:04.080Z,13.7
2022-09-14T01:42:04.058Z,13.7
2022-09-14T01:43:04.061Z,13.6
2022-09-14T01:44:04.053Z,13.6
2022-09-14T01:45:04.064Z,13.6
2022-09-14T01:46:04.140Z,13.6
2022-09-14T01:47:04.066Z,13.6
2022-09-14T01:48:04.066Z,13.7
2022-09-14T01:49:04.070Z,13.6
2022-09-14T01:50:04.068Z,13.7
2022-09-14T01:51:04.074Z,13.6
2022-09-14T01:52:04.080Z,13.7
2022-09-14T01:53:04.075Z,13.7
2022-09-14T01:54:04.095Z,13.7
2022-09-14T01:55:04.054Z,13.7
2022-09-14T01:56:04.071Z,13.7
2022-09-14T01:57:04.074Z,13.7
2022-09-14T01:58:04.071Z,13.7
2022-09-14T01:59:04.082Z,13.7
2022-09-14T02:00:04.072Z,13.7
2022-09-14T02:01:04.136Z,13.8
2022-09-14T02:02:04.127Z,13.7
2022-09-14T02:03:04.073Z,13.7
2022-09-14T02:04:04.055Z,13.7
2022-09-14T02:05:04.098Z,13.6
2022-09-14T02:06:04.066Z,13.7
2022-09-14T02:07:04.090Z,13.7
2022-09-14T02:08:04.063Z,13.7
2022-09-14T02:09:04.070Z,13.7
2022-09-14T02:10:04.082Z,13.7
2022-09-14T02:11:04.078Z,13.7
2022-09-14T02:12:04.059Z,13.7
2022-09-14T02:13:04.073Z,13.7
2022-09-14T02:14:04.082Z,13.7
2022-09-14T02:15:04.073Z,13.7
2022-09-14T02:16:04.151Z,13.8
2022-09-14T02:17:04.112Z,13.7
2022-09-14T02:18:04.068Z,13.7
2022-09-14T02:19:04.063Z,13.6
2022-09-14T02:20:04.088Z,13.7
2022-09-14T02:21:04.068Z,13.7
2022-09-14T02:22:04.161Z,13.7
2022-09-14T02:23:04.079Z,13.7
2022-09-14T02:24:04.076Z,13.7
2022-09-14T02:25:04.081Z,13.7
2022-09-14T02:26:04.085Z,13.7
2022-09-14T02:27:04.063Z,13.7
2022-09-14T02:28:04.073Z,13.8
2022-09-14T02:29:04.059Z,13.7
2022-09-14T02:30:04.092Z,13.7
2022-09-14T02:31:04.120Z,13.7
2022-09-14T02:32:04.070Z,13.8
2022-09-14T02:33:04.061Z,13.7
2022-09-14T02:34:04.094Z,13.8
2022-09-14T02:35:04.078Z,13.8
2022-09-14T02:36:04.071Z,13.8
2022-09-14T02:37:04.070Z,13.8
2022-09-14T02:38:04.089Z,13.8
2022-09-14T02:39:04.126Z,13.8
2022-09-14T02:40:04.191Z,13.7
2022-09-14T02:41:04.077Z,13.8
2022-09-14T02:42:04.087Z,13.8
2022-09-14T02:43:04.064Z,13.8
2022-09-14T02:44:04.067Z,13.7
2022-09-14T02:45:04.071Z,13.7
2022-09-14T02:46:04.091Z,13.7
2022-09-14T02:47:04.146Z,13.8
2022-09-14T02:48:04.079Z,13.7
2022-09-14T02:49:04.111Z,13.7
2022-09-14T02:50:04.076Z,13.6
2022-09-14T02:51:04.065Z,13.7
2022-09-14T02:52:04.114Z,13.7
2022-09-14T02:53:04.085Z,13.7
2022-09-14T02:54:04.093Z,13.8
2022-09-14T02:55:04.082Z,13.7
2022-09-14T02:56:04.191Z,13.7
2022-09-14T02:57:04.068Z,13.7
2022-09-14T02:58:04.081Z,13.7
2022-09-14T02:59:04.079Z,13.7
2022-09-14T03:00:04.109Z,13.7
2022-09-14T03:01:04.202Z,13.7
2022-09-14T03:02:04.159Z,13.7
2022-09-14T03:03:04.079Z,13.7
2022-09-14T03:04:04.082Z,13.7
2022-09-14T03:05:04.075Z,13.7
2022-09-14T03:06:04.090Z,13.7
2022-09-14T03:07:04.085Z,13.8
2022-09-14T03:08:04.084Z,13.7
2022-09-14T03:09:04.095Z,13.7
2022-09-14T03:10:04.086Z,13.8
2022-09-14T03:11:04.079Z,13.7
2022-09-14T03:12:04.074Z,13.7
2022-09-14T03:13:04.085Z,13.6
2022-09-14T03:14:04.094Z,13.7
2022-09-14T03:15:04.085Z,13.8
2022-09-14T03:16:04.123Z,13.7
2022-09-14T03:17:04.094Z,13.8
2022-09-14T03:18:04.083Z,13.7
2022-09-14T03:19:04.074Z,13.7
2022-09-14T03:20:04.128Z,13.6
2022-09-14T03:21:04.093Z,13.6
2022-09-14T03:22:04.079Z,13.7
2022-09-14T03:23:04.089Z,13.7
2022-09-14T03:24:04.086Z,13.6
2022-09-14T03:25:04.113Z,13.7
2022-09-14T03:26:04.094Z,13.7
2022-09-14T03:27:04.119Z,13.6
2022-09-14T03:28:04.088Z,13.6
2022-09-14T03:29:04.083Z,13.6
2022-09-14T03:30:04.085Z,13.6
2022-09-14T03:31:04.138Z,13.7
2022-09-14T03:32:04.088Z,13.7
2022-09-14T03:33:04.100Z,13.7
2022-09-14T03:34:04.094Z,13.7
2022-09-14T03:35:04.076Z,13.7
2022-09-14T03:36:04.089Z,13.7
2022-09-14T03:37:04.088Z,13.7
2022-09-14T03:38:04.084Z,13.7
2022-09-14T03:39:04.097Z,13.7
2022-09-14T03:40:04.168Z,13.7
2022-09-14T03:41:04.079Z,13.8
2022-09-14T03:42:04.133Z,13.7
2022-09-14T03:43:04.092Z,13.8
2022-09-14T03:44:04.085Z,13.8
2022-09-14T03:45:04.089Z,13.8
2022-09-14T03:46:04.104Z,13.7
2022-09-14T03:47:04.145Z,13.7
2022-09-14T03:48:04.084Z,13.7
2022-09-14T03:49:04.097Z,13.7
2022-09-14T03:50:04.108Z,13.7
2022-09-14T03:51:04.093Z,13.7
2022-09-14T03:52:04.094Z,13.7
2022-09-14T03:53:04.084Z,13.6
2022-09-14T03:54:04.106Z,13.7
2022-09-14T03:55:04.101Z,13.6
2022-09-14T03:56:04.085Z,13.7
2022-09-14T03:57:04.086Z,13.7
2022-09-14T03:58:04.234Z,13.7
2022-09-14T03:59:04.113Z,13.7
2022-09-14T04:00:04.099Z,13.7
2022-09-14T04:01:04.102Z,13.7
2022-09-14T04:02:04.243Z,13.7
2022-09-14T04:03:04.118Z,13.7
2022-09-14T04:04:04.117Z,13.7
2022-09-14T04:05:04.095Z,13.7
2022-09-14T04:06:04.098Z,13.7
2022-09-14T04:07:04.098Z,13.7
2022-09-14T04:08:04.103Z,13.7
2022-09-14T04:09:04.104Z,13.7
2022-09-14T04:10:04.099Z,13.6
2022-09-14T04:11:04.110Z,13.6
2022-09-14T04:12:04.123Z,13.7
2022-09-14T04:13:04.103Z,13.6
2022-09-14T04:14:04.098Z,13.7
2022-09-14T04:15:04.102Z,13.7
2022-09-14T04:16:04.207Z,13.7
2022-09-14T04:17:04.109Z,13.7
2022-09-14T04:18:04.095Z,13.7
2022-09-14T04:19:04.092Z,13.7
2022-09-14T04:20:04.168Z,13.7
2022-09-14T04:21:08.047Z,13.6
2022-09-14T04:22:04.088Z,13.7
2022-09-14T04:23:04.098Z,13.7
2022-09-14T04:24:14.508Z,13.7
2022-09-14T04:25:04.115Z,13.7
2022-09-14T04:26:04.095Z,13.6
2022-09-14T04:27:04.110Z,13.7
2022-09-14T04:28:19.673Z,13.7
2022-09-14T04:29:04.125Z,13.6
2022-09-14T04:30:04.105Z,13.7
2022-09-14T04:31:04.168Z,13.7
2022-09-14T04:32:04.104Z,13.7
2022-09-14T04:33:04.164Z,13.7
2022-09-14T04:34:04.115Z,13.7
2022-09-14T04:35:04.097Z,13.7
2022-09-14T04:36:04.091Z,13.7
2022-09-14T04:37:04.138Z,13.7
2022-09-14T04:38:04.111Z,13.7
2022-09-14T04:39:04.101Z,13.7
2022-09-14T04:40:04.169Z,13.6
2022-09-14T04:41:04.098Z,13.7
2022-09-14T04:42:04.113Z,13.7
2022-09-14T04:43:04.109Z,13.7
2022-09-14T04:44:04.098Z,13.6
2022-09-14T04:45:04.163Z,13.7
2022-09-14T04:46:04.182Z,13.7
2022-09-14T04:47:04.138Z,13.6
2022-09-14T04:48:04.110Z,13.7
2022-09-14T04:49:04.109Z,13.7
2022-09-14T04:50:04.167Z,13.7
2022-09-14T04:51:04.112Z,13.7
2022-09-14T04:52:04.111Z,13.7
2022-09-14T04:53:04.110Z,13.6
2022-09-14T04:54:04.103Z,13.6
2022-09-14T04:55:04.111Z,13.7
2022-09-14T04:56:04.132Z,13.6
2022-09-14T04:57:04.116Z,13.7
2022-09-14T04:58:04.118Z,13.7
2022-09-14T04:59:04.114Z,13.7
2022-09-14T05:00:04.153Z,13.6
2022-09-14T05:01:04.121Z,13.6
2022-09-14T05:02:04.249Z,13.6
2022-09-14T05:03:04.182Z,13.6
2022-09-14T05:04:04.105Z,13.6
2022-09-14T05:05:04.102Z,13.7
2022-09-14T05:06:04.117Z,13.6
2022-09-14T05:07:04.117Z,13.5
2022-09-14T05:08:04.101Z,13.7
2022-09-14T05:09:04.112Z,13.6
2022-09-14T05:10:04.122Z,13.6
2022-09-14T05:11:04.106Z,13.6
2022-09-14T05:12:04.143Z,13.6
2022-09-14T05:13:04.108Z,13.6
2022-09-14T05:14:04.128Z,13.6
2022-09-14T05:15:04.106Z,13.7
2022-09-14T05:16:04.177Z,13.7
2022-09-14T05:17:04.115Z,13.6
2022-09-14T05:18:04.123Z,13.6
2022-09-14T05:19:04.120Z,13.7
2022-09-14T05:20:04.127Z,13.6
2022-09-14T05:21:08.220Z,13.6
2022-09-14T05:22:04.128Z,13.6
2022-09-14T05:23:04.124Z,13.6
2022-09-14T05:24:04.111Z,13.7
2022-09-14T05:25:04.110Z,13.6
2022-09-14T05:26:04.123Z,13.6
2022-09-14T05:27:04.116Z,13.7
2022-09-14T05:28:04.111Z,13.6
2022-09-14T05:29:04.141Z,13.6
2022-09-14T05:30:04.128Z,13.6
2022-09-14T05:31:04.240Z,13.6
2022-09-14T05:32:04.110Z,13.5
2022-09-14T05:33:04.119Z,13.6
2022-09-14T05:34:04.121Z,13.6
2022-09-14T05:35:04.127Z,13.6
2022-09-14T05:36:04.136Z,13.6
2022-09-14T05:37:04.127Z,13.5
2022-09-14T05:38:04.136Z,13.6
2022-09-14T05:39:04.122Z,13.6
2022-09-14T05:40:04.206Z,13.6
2022-09-14T05:41:04.113Z,13.6
2022-09-14T05:42:04.121Z,13.6
2022-09-14T05:43:04.117Z,13.6
2022-09-14T05:44:04.127Z,13.7
2022-09-14T05:45:04.113Z,13.6
2022-09-14T05:46:04.185Z,13.6
2022-09-14T05:47:04.114Z,13.6
2022-09-14T05:48:04.125Z,13.6
2022-09-14T05:49:04.119Z,13.6
2022-09-14T05:51:04.127Z,13.7
2022-09-14T05:52:04.124Z,13.6
2022-09-14T05:53:04.115Z,13.7
2022-09-14T05:54:04.128Z,13.7
2022-09-14T05:55:04.121Z,13.6
2022-09-14T05:56:04.138Z,13.7
2022-09-14T05:57:04.113Z,13.7
2022-09-14T05:58:04.118Z,13.6
2022-09-14T05:59:04.141Z,13.6
2022-09-14T06:00:04.147Z,13.6
2022-09-14T06:01:04.118Z,13.7
2022-09-14T06:02:04.198Z,13.7
2022-09-14T06:03:04.153Z,13.7
2022-09-14T06:04:04.122Z,13.7
2022-09-14T06:05:04.166Z,13.7
2022-09-14T06:06:04.125Z,13.7
2022-09-14T06:07:17.933Z,13.7
2022-09-14T06:08:04.121Z,13.6
2022-09-14T06:09:04.125Z,13.7
2022-09-14T06:10:04.127Z,13.7
2022-09-14T06:11:04.129Z,13.7
2022-09-14T06:12:04.127Z,13.7
2022-09-14T06:13:04.139Z,13.7
2022-09-14T06:14:04.124Z,13.7
2022-09-14T06:15:04.164Z,13.7
2022-09-14T06:16:04.125Z,13.7
2022-09-14T06:17:04.119Z,13.6
2022-09-14T06:18:04.119Z,13.6
2022-09-14T06:19:04.120Z,13.6
2022-09-14T06:20:04.984Z,13.6
2022-09-14T06:21:04.129Z,13.6
2022-09-14T06:22:04.130Z,13.6
2022-09-14T06:23:04.131Z,13.6
2022-09-14T06:24:04.124Z,13.8
2022-09-14T06:25:04.125Z,13.7
2022-09-14T06:26:04.144Z,13.8
2022-09-14T06:27:04.137Z,13.8
2022-09-14T06:28:04.134Z,13.7
2022-09-14T06:29:04.162Z,13.7
2022-09-14T06:30:04.133Z,13.7
2022-09-14T06:31:04.124Z,13.7
2022-09-14T06:32:04.139Z,13.7
2022-09-14T06:33:04.258Z,13.7
2022-09-14T06:34:04.130Z,13.8
2022-09-14T06:35:04.120Z,13.7
2022-09-14T06:36:04.134Z,13.8
2022-09-14T06:37:04.194Z,13.7
2022-09-14T06:38:04.137Z,13.7
2022-09-14T06:39:04.129Z,13.8
2022-09-14T06:40:04.261Z,13.8
2022-09-14T06:41:04.138Z,13.7
2022-09-14T06:42:04.121Z,13.7
2022-09-14T06:43:04.133Z,13.7
2022-09-14T06:44:04.136Z,13.8
2022-09-14T06:45:04.142Z,13.8
2022-09-14T06:46:04.128Z,13.8
2022-09-14T06:47:04.131Z,13.8
2022-09-14T06:48:04.129Z,13.8
2022-09-14T06:49:04.187Z,13.8
2022-09-14T06:50:04.119Z,13.8
2022-09-14T06:51:04.135Z,13.8
2022-09-14T06:52:04.139Z,13.8
2022-09-14T06:53:04.125Z,13.7
2022-09-14T06:54:04.131Z,13.7
2022-09-14T06:55:04.141Z,13.8
2022-09-14T06:56:04.141Z,13.8
2022-09-14T06:57:04.137Z,13.8
2022-09-14T06:58:04.137Z,13.8
2022-09-14T06:59:04.143Z,13.7
2022-09-14T07:00:04.129Z,13.7
2022-09-14T07:01:04.133Z,13.7
2022-09-14T07:02:04.146Z,13.7
2022-09-14T07:03:04.270Z,13.8
2022-09-14T07:04:04.156Z,13.7
2022-09-14T07:05:04.153Z,13.8
2022-09-14T07:06:04.132Z,13.8
2022-09-14T07:07:04.137Z,13.8
2022-09-14T07:08:04.137Z,13.8
2022-09-14T07:09:04.162Z,13.8
2022-09-14T07:10:04.126Z,13.7
2022-09-14T07:11:04.204Z,13.8
2022-09-14T07:12:04.147Z,13.8
2022-09-14T07:13:04.172Z,13.8
2022-09-14T07:14:04.128Z,13.8
2022-09-14T07:15:04.183Z,13.8
2022-09-14T07:16:04.153Z,13.8
2022-09-14T07:17:04.144Z,13.8
2022-09-14T07:18:04.180Z,13.8
2022-09-14T07:19:04.144Z,13.8
2022-09-14T07:20:04.238Z,13.8
2022-09-14T07:21:05.651Z,13.8
2022-09-14T07:22:04.138Z,13.8
2022-09-14T07:23:04.173Z,13.9
2022-09-14T07:24:04.141Z,13.9
2022-09-14T07:25:04.127Z,13.9
2022-09-14T07:26:04.151Z,13.9
2022-09-14T07:27:04.143Z,13.8
2022-09-14T07:28:04.130Z,13.8
2022-09-14T07:29:04.147Z,13.8
2022-09-14T07:30:04.151Z,13.9
2022-09-14T07:31:04.255Z,13.9
2022-09-14T07:32:04.143Z,13.9
2022-09-14T07:33:04.155Z,13.8
2022-09-14T07:34:04.151Z,13.8
2022-09-14T07:35:04.215Z,13.8
2022-09-14T07:36:04.146Z,13.8
2022-09-14T07:37:04.150Z,13.9
2022-09-14T07:38:04.148Z,13.9
2022-09-14T07:39:04.314Z,13.8
2022-09-14T07:40:04.263Z,13.8
2022-09-14T07:41:04.153Z,13.8
2022-09-14T07:42:04.147Z,13.8
2022-09-14T07:43:04.151Z,13.8
2022-09-14T07:44:04.141Z,13.8
2022-09-14T07:45:04.171Z,13.8
2022-09-14T07:46:04.294Z,13.8
2022-09-14T07:47:04.154Z,13.8
2022-09-14T07:48:04.144Z,13.9
2022-09-14T07:49:04.148Z,13.8
2022-09-14T07:50:04.170Z,13.8
2022-09-14T07:51:04.150Z,13.9
2022-09-14T07:52:04.161Z,13.8
2022-09-14T07:53:04.162Z,14
2022-09-14T07:54:04.153Z,14
2022-09-14T07:55:04.161Z,14
2022-09-14T07:56:04.149Z,13.9
2022-09-14T07:57:04.138Z,13.9
2022-09-14T07:58:04.159Z,13.9
2022-09-14T08:00:04.150Z,13.9
2022-09-14T08:01:04.211Z,13.9
2022-09-14T08:02:04.224Z,13.9
2022-09-14T08:03:04.151Z,14
2022-09-14T08:04:05.619Z,13.9
2022-09-14T08:05:04.146Z,13.9
2022-09-14T08:06:04.181Z,14
2022-09-14T08:07:04.161Z,13.9
2022-09-14T08:08:04.153Z,13.9
2022-09-14T08:09:04.198Z,13.9
2022-09-14T08:10:04.159Z,13.9
2022-09-14T08:11:04.139Z,13.9
2022-09-14T08:12:04.151Z,13.9
2022-09-14T08:13:04.161Z,14
2022-09-14T08:14:04.161Z,13.9
2022-09-14T08:15:04.158Z,13.9
2022-09-14T08:16:04.301Z,14
2022-09-14T08:17:04.155Z,14
2022-09-14T08:18:04.150Z,13.9
2022-09-14T08:19:04.159Z,14
2022-09-14T08:20:04.149Z,14.1
2022-09-14T08:21:04.158Z,13.9
2022-09-14T08:22:04.164Z,13.9
2022-09-14T08:23:04.155Z,13.9
2022-09-14T08:24:04.240Z,13.9
2022-09-14T08:25:04.165Z,13.9
2022-09-14T08:26:04.149Z,14
2022-09-14T08:27:04.164Z,14
2022-09-14T08:28:04.210Z,14
2022-09-14T08:29:04.164Z,14
2022-09-14T08:30:04.210Z,13.9
2022-09-14T08:31:04.174Z,13.9
2022-09-14T08:32:04.239Z,13.9
2022-09-14T08:33:04.218Z,13.9
2022-09-14T08:34:04.151Z,13.9
2022-09-14T08:35:04.170Z,14
2022-09-14T08:36:04.159Z,14
2022-09-14T08:37:04.270Z,14
2022-09-14T08:38:04.160Z,13.9
2022-09-14T08:39:04.159Z,13.9
2022-09-14T08:40:04.278Z,14
2022-09-14T08:41:04.154Z,13.9
2022-09-14T08:42:04.168Z,14
2022-09-14T08:43:04.162Z,14
2022-09-14T08:44:04.179Z,14
2022-09-14T08:45:09.429Z,14
2022-09-14T08:46:04.255Z,14
2022-09-14T08:47:04.160Z,14
2022-09-14T08:48:04.176Z,14
2022-09-14T08:49:04.187Z,14
2022-09-14T08:50:04.172Z,14
2022-09-14T08:51:04.166Z,14
2022-09-14T08:52:04.165Z,14
2022-09-14T08:53:04.171Z,14
2022-09-14T08:54:04.177Z,14
2022-09-14T08:55:04.167Z,14.1
2022-09-14T08:56:04.165Z,14.1
2022-09-14T08:57:04.161Z,14.1
2022-09-14T08:58:04.161Z,14.1
2022-09-14T08:59:04.198Z,14.1
2022-09-14T09:00:04.168Z,14
2022-09-14T09:01:04.201Z,14.1
2022-09-14T09:02:04.170Z,14.1
2022-09-14T09:03:04.194Z,14.1
2022-09-14T09:04:04.230Z,14
2022-09-14T09:05:04.159Z,14.1
2022-09-14T09:06:04.171Z,14.1
2022-09-14T09:07:04.160Z,14
2022-09-14T09:08:04.196Z,14
2022-09-14T09:09:04.179Z,14
2022-09-14T09:10:04.184Z,14.1
2022-09-14T09:11:04.155Z,14.1
2022-09-14T09:12:04.232Z,14.1
2022-09-14T09:13:04.177Z,14.1
2022-09-14T09:14:04.210Z,14
2022-09-14T09:15:04.173Z,14
2022-09-14T09:16:04.198Z,14.1
2022-09-14T09:17:04.185Z,14.2
2022-09-14T09:18:04.192Z,14.1
2022-09-14T09:19:04.195Z,14
2022-09-14T09:20:04.185Z,14
2022-09-14T09:21:04.173Z,14.1
2022-09-14T09:22:04.184Z,14.1
2022-09-14T09:23:04.170Z,14
2022-09-14T09:24:04.197Z,14.1
2022-09-14T09:25:04.178Z,14.1
2022-09-14T09:26:04.169Z,14.1
2022-09-14T09:27:04.178Z,14.1
2022-09-14T09:28:04.181Z,14.1
2022-09-14T09:29:04.183Z,14.1
2022-09-14T09:30:04.175Z,14.2
2022-09-14T09:31:04.208Z,14.1
2022-09-14T09:32:04.203Z,14.1
2022-09-14T09:33:04.181Z,14.1
2022-09-14T09:34:04.185Z,14.1
2022-09-14T09:35:04.247Z,14.1
2022-09-14T09:36:04.185Z,14.2
2022-09-14T09:37:04.499Z,14.1
2022-09-14T09:38:04.174Z,14.1
2022-09-14T09:39:05.374Z,14.1
2022-09-14T09:40:04.234Z,14.2
2022-09-14T09:41:04.170Z,14.2
2022-09-14T09:42:04.175Z,14.1
2022-09-14T09:43:04.170Z,14.1
2022-09-14T09:44:04.191Z,14.1
2022-09-14T09:45:04.475Z,14.1
2022-09-14T09:47:04.223Z,14.2
2022-09-14T09:48:04.171Z,14.2
2022-09-14T09:49:04.185Z,14.2
2022-09-14T09:50:04.193Z,14.1
2022-09-14T09:51:04.172Z,14.2
2022-09-14T09:52:04.171Z,14.2
2022-09-14T09:53:06.756Z,14.2
2022-09-14T09:54:04.194Z,14.2
2022-09-14T09:55:04.173Z,14.2
2022-09-14T09:56:04.177Z,14.2
2022-09-14T09:57:04.192Z,14.1
2022-09-14T09:58:04.181Z,14.1
2022-09-14T09:59:04.191Z,14.1
2022-09-14T10:00:04.186Z,14.2
2022-09-14T10:01:05.966Z,14.2
2022-09-14T10:02:04.258Z,14.1
2022-09-14T10:03:04.240Z,14.1
2022-09-14T10:04:04.199Z,14.2
2022-09-14T10:05:04.204Z,14.1
2022-09-14T10:06:04.181Z,14.2
2022-09-14T10:07:04.193Z,14.2
2022-09-14T10:08:06.915Z,14.1
2022-09-14T10:09:04.215Z,14.1
2022-09-14T10:10:04.289Z,14.1
2022-09-14T10:11:04.180Z,14.1
2022-09-14T10:12:04.188Z,14
2022-09-14T10:13:04.195Z,14
2022-09-14T10:14:04.196Z,14
2022-09-14T10:15:04.178Z,14
2022-09-14T10:16:04.259Z,13.9
2022-09-14T10:17:04.188Z,14
2022-09-14T10:18:04.192Z,14
2022-09-14T10:19:04.204Z,14
2022-09-14T10:20:04.182Z,14
2022-09-14T10:21:04.192Z,14.1
2022-09-14T10:22:04.195Z,14
2022-09-14T10:23:04.172Z,14.1
2022-09-14T10:24:04.200Z,14.1
2022-09-14T10:25:04.217Z,14.1
2022-09-14T10:26:04.182Z,14
2022-09-14T10:27:04.180Z,14.1
2022-09-14T10:28:04.188Z,14
2022-09-14T10:29:04.204Z,14
2022-09-14T10:30:04.185Z,14.1
2022-09-14T10:31:04.251Z,14.1
2022-09-14T10:32:04.179Z,14.1
2022-09-14T10:33:04.196Z,14.1
2022-09-14T10:34:04.209Z,14.1
2022-09-14T10:35:04.196Z,14.1
2022-09-14T10:36:04.195Z,14.1
2022-09-14T10:37:04.247Z,14.1
2022-09-14T10:38:04.203Z,14
2022-09-14T10:39:04.204Z,14
2022-09-14T10:40:04.260Z,14.1
2022-09-14T10:41:04.224Z,14.1
2022-09-14T10:42:04.249Z,14.2
2022-09-14T10:43:04.183Z,14.2
2022-09-14T10:44:04.248Z,14.2
2022-09-14T10:45:04.190Z,14.2
2022-09-14T10:46:04.250Z,14.2
2022-09-14T10:47:05.048Z,14.2
2022-09-14T10:48:04.194Z,14.3
2022-09-14T10:49:04.207Z,14.3
2022-09-14T10:50:04.197Z,14.2
2022-09-14T10:51:04.198Z,14.2
2022-09-14T10:52:04.203Z,14.1
2022-09-14T10:53:04.203Z,14.1
2022-09-14T10:54:04.210Z,14.1
2022-09-14T10:55:04.193Z,14.2
2022-09-14T10:56:04.201Z,14.1
2022-09-14T10:57:04.183Z,14.1
2022-09-14T10:58:04.210Z,14.2
2022-09-14T10:59:04.225Z,14.1
2022-09-14T11:00:04.204Z,14.2
2022-09-14T11:01:04.185Z,14.1
2022-09-14T11:02:04.368Z,14.1
2022-09-14T11:03:04.267Z,14.1
2022-09-14T11:04:04.227Z,14
2022-09-14T11:05:04.201Z,14.1
2022-09-14T11:06:04.266Z,14.1
2022-09-14T11:07:04.200Z,14.1
2022-09-14T11:08:04.192Z,14.2
2022-09-14T11:09:04.212Z,14.1
2022-09-14T11:10:04.190Z,14.1
2022-09-14T11:11:08.097Z,14.1
2022-09-14T11:12:04.244Z,14.1
2022-09-14T11:13:04.209Z,14.2
2022-09-14T11:14:04.215Z,14.1
2022-09-14T11:15:04.205Z,14.1
2022-09-14T11:16:04.247Z,14.2
2022-09-14T11:17:04.208Z,14.1
2022-09-14T11:18:04.233Z,14.2
2022-09-14T11:19:04.228Z,14.1
2022-09-14T11:20:04.210Z,14.1
2022-09-14T11:21:04.197Z,14.1
2022-09-14T11:22:04.204Z,14.1
2022-09-14T11:23:04.272Z,14.1
2022-09-14T11:24:04.231Z,14
2022-09-14T11:26:04.198Z,14
2022-09-14T11:27:04.203Z,14
2022-09-14T11:28:04.218Z,14.1
2022-09-14T11:29:04.222Z,14.1
2022-09-14T11:30:04.212Z,14.1
2022-09-14T11:31:04.285Z,14
2022-09-14T11:32:20.292Z,14
2022-09-14T11:33:04.204Z,14
2022-09-14T11:34:04.228Z,14
2022-09-14T11:35:04.206Z,14
2022-09-14T11:36:04.198Z,14
2022-09-14T11:37:04.209Z,14
2022-09-14T11:39:06.865Z,13.9
2022-09-14T11:40:04.293Z,14
2022-09-14T11:41:04.210Z,14
2022-09-14T11:42:04.217Z,14
2022-09-14T11:43:04.256Z,14.1
2022-09-14T11:44:04.231Z,14
2022-09-14T11:45:04.268Z,14
2022-09-14T11:46:04.253Z,14.1
2022-09-14T11:47:04.217Z,14
2022-09-14T11:48:09.441Z,14
2022-09-14T11:49:04.250Z,14
2022-09-14T11:50:04.216Z,14.1
2022-09-14T11:51:04.212Z,14.1
2022-09-14T11:52:04.212Z,14.1
2022-09-14T11:53:04.236Z,14.1
2022-09-14T11:54:04.240Z,14.1
2022-09-14T11:55:04.228Z,14.1
2022-09-14T11:56:04.203Z,14.1
2022-09-14T11:57:04.262Z,14.2
2022-09-14T11:58:04.205Z,14.2
2022-09-14T11:59:04.238Z,14.2
2022-09-14T12:00:04.216Z,14.2
2022-09-14T12:01:04.243Z,14.1
2022-09-14T12:02:04.209Z,14.1
2022-09-14T12:03:04.281Z,14.1
2022-09-14T12:04:04.318Z,14.1
2022-09-14T12:05:04.207Z,14.2
2022-09-14T12:06:04.207Z,14.1
2022-09-14T12:07:04.210Z,14.1
2022-09-14T12:08:04.213Z,14.1
2022-09-14T12:09:04.237Z,14.2
2022-09-14T12:10:04.215Z,14.2
2022-09-14T12:11:04.210Z,14.2
2022-09-14T12:12:04.221Z,14.2
2022-09-14T12:13:04.213Z,14.1
2022-09-14T12:14:04.254Z,14
2022-09-14T12:15:04.223Z,14.1
2022-09-14T12:16:04.256Z,14.2
2022-09-14T12:17:17.670Z,14.2
2022-09-14T12:18:04.219Z,14.2
2022-09-14T12:19:04.299Z,14.3
2022-09-14T12:20:04.207Z,14.2
2022-09-14T12:21:04.239Z,14.2
2022-09-14T12:22:04.221Z,14.1
2022-09-14T12:23:04.236Z,14.2
2022-09-14T12:24:04.221Z,14.2
2022-09-14T12:25:04.222Z,14.3
2022-09-14T12:26:04.217Z,14.2
2022-09-14T12:27:04.221Z,14.2
2022-09-14T12:28:04.210Z,14.2
2022-09-14T12:29:04.233Z,14.2
2022-09-14T12:30:04.225Z,14
2022-09-14T12:31:04.327Z,14.1
2022-09-14T12:32:04.214Z,14.3
2022-09-14T12:33:04.216Z,14.3
2022-09-14T12:34:04.265Z,14.2
2022-09-14T12:35:04.222Z,14.2
2022-09-14T12:36:04.273Z,14.1
2022-09-14T12:37:05.695Z,14.2
2022-09-14T12:38:04.228Z,14.3
2022-09-14T12:39:04.244Z,14.3
2022-09-14T12:40:04.270Z,14.3
2022-09-14T12:41:04.217Z,14.2
2022-09-14T12:42:04.219Z,14.3
2022-09-14T12:43:04.231Z,14.3
2022-09-14T12:44:04.256Z,14.3
2022-09-14T12:45:04.258Z,14.2
2022-09-14T12:46:04.275Z,14.1
2022-09-14T12:47:04.226Z,14.1
2022-09-14T12:48:04.265Z,14.1
2022-09-14T12:49:04.261Z,14.2
2022-09-14T12:50:04.215Z,14.1
2022-09-14T12:51:04.228Z,14.1
2022-09-14T12:52:04.232Z,14.1
2022-09-14T12:53:04.305Z,14.2
2022-09-14T12:54:04.241Z,14.2
2022-09-14T12:55:04.217Z,14.2
2022-09-14T12:56:04.230Z,14.2
2022-09-14T12:57:04.228Z,14.2
2022-09-14T12:58:04.241Z,14.2
2022-09-14T12:59:04.250Z,14.1
2022-09-14T13:00:04.238Z,14.2
2022-09-14T13:01:04.299Z,14.3
2022-09-14T13:02:04.335Z,14.3
2022-09-14T13:03:04.218Z,14.2
2022-09-14T13:04:04.267Z,14.2
2022-09-14T13:05:04.228Z,14.2
2022-09-14T13:06:04.238Z,14.2
2022-09-14T13:07:04.245Z,14.2
2022-09-14T13:08:04.238Z,14.2
2022-09-14T13:09:07.489Z,14.1
2022-09-14T13:10:04.277Z,14.1
2022-09-14T13:11:04.238Z,14.1
2022-09-14T13:12:04.235Z,14.2
2022-09-14T13:13:04.225Z,14.2
2022-09-14T13:14:04.254Z,14.2
2022-09-14T13:15:04.239Z,14.2
2022-09-14T13:16:04.428Z,14.1
2022-09-14T13:17:04.230Z,14.1
2022-09-14T13:18:04.244Z,14.1
2022-09-14T13:19:04.236Z,14.2
2022-09-14T13:20:04.336Z,14.2
2022-09-14T13:21:04.233Z,14.2
2022-09-14T13:22:04.242Z,14.2
2022-09-14T13:23:04.238Z,14.3
2022-09-14T13:24:04.299Z,14.2
2022-09-14T13:25:04.239Z,14.2
2022-09-14T13:26:04.233Z,14.3
2022-09-14T13:27:04.234Z,14.2
2022-09-14T13:28:04.235Z,14.1